SWR589X ESSA-LSZH
Flight info
| Callsign | SWR589X |
|---|---|
| Flight time | N/A |
| Altitude | 34000 |
| Route | NOSLI N850 ABAMA DCT MAKEL DCT OTMON DCT SWALM DCT OMOGI/N0453F350 T721 LAMGO/N0422F270 T721 RILAX |
| Aircraft | A21N/M-SDE3FGHIRWY/LB1 |
Departure
| Time | N/A |
|---|---|
| Airport | Stockholm-Arlanda Airport (ESSA) |
Arrival
| Time | 2026-05-05 21:35 |
|---|---|
| Airport | Zürich Airport (LSZH) |
| Time | Latitude | Longitude | Altitude | Speed | Heading |
|---|---|---|---|---|---|
| 2026-05-05 20:13 | 53.40074 | 11.13833 | 33902 ft | 429 kts | 204° |
| 2026-05-05 20:14 | 53.37283 | 11.12085 | 33900 ft | 429 kts | 204° |
| 2026-05-05 20:14 | 53.31662 | 11.08570 | 33894 ft | 429 kts | 203° |
| 2026-05-05 20:15 | 53.26055 | 11.05075 | 33886 ft | 429 kts | 203° |
| 2026-05-05 20:15 | 53.20469 | 11.01603 | 33879 ft | 429 kts | 203° |
| 2026-05-05 20:16 | 53.14891 | 10.98145 | 33877 ft | 428 kts | 203° |
| 2026-05-05 20:16 | 53.09339 | 10.94712 | 33876 ft | 428 kts | 203° |
| 2026-05-05 20:17 | 53.03733 | 10.91256 | 33876 ft | 428 kts | 203° |
| 2026-05-05 20:17 | 52.98170 | 10.87837 | 33876 ft | 428 kts | 202° |
| 2026-05-05 20:18 | 52.92612 | 10.84430 | 33876 ft | 428 kts | 202° |
| 2026-05-05 20:18 | 52.87015 | 10.81008 | 33877 ft | 427 kts | 202° |
| 2026-05-05 20:19 | 52.81449 | 10.77614 | 33876 ft | 427 kts | 202° |
| 2026-05-05 20:19 | 52.75888 | 10.74233 | 33876 ft | 426 kts | 202° |
| 2026-05-05 20:20 | 52.70329 | 10.70862 | 33870 ft | 426 kts | 202° |
| 2026-05-05 20:20 | 52.64755 | 10.67491 | 33863 ft | 426 kts | 202° |
| 2026-05-05 20:21 | 52.59237 | 10.64163 | 33855 ft | 426 kts | 201° |
| 2026-05-05 20:21 | 52.53679 | 10.60819 | 33850 ft | 425 kts | 201° |
| 2026-05-05 20:22 | 52.48136 | 10.57495 | 33848 ft | 425 kts | 201° |
| 2026-05-05 20:22 | 52.42580 | 10.54171 | 33848 ft | 425 kts | 201° |
| 2026-05-05 20:23 | 52.37029 | 10.50859 | 33848 ft | 425 kts | 201° |
| 2026-05-05 20:23 | 52.31509 | 10.47574 | 33848 ft | 425 kts | 201° |
| 2026-05-05 20:24 | 52.25966 | 10.44285 | 33848 ft | 425 kts | 201° |
| 2026-05-05 20:24 | 52.20409 | 10.40996 | 33848 ft | 424 kts | 201° |
| 2026-05-05 20:25 | 52.14916 | 10.37753 | 33848 ft | 424 kts | 201° |
| 2026-05-05 20:25 | 52.08436 | 10.33940 | 33848 ft | 423 kts | 200° |
| 2026-05-05 20:26 | 52.03829 | 10.31237 | 33848 ft | 423 kts | 200° |
| 2026-05-05 20:26 | 51.98313 | 10.28004 | 33847 ft | 424 kts | 199° |
| 2026-05-05 20:27 | 51.92773 | 10.24769 | 33848 ft | 424 kts | 200° |
| 2026-05-05 20:27 | 51.87209 | 10.21530 | 33849 ft | 424 kts | 200° |
| 2026-05-05 20:28 | 51.81638 | 10.18291 | 33848 ft | 424 kts | 199° |
| 2026-05-05 20:28 | 51.76106 | 10.15086 | 33848 ft | 424 kts | 199° |
| 2026-05-05 20:29 | 51.70574 | 10.11889 | 33848 ft | 424 kts | 199° |
| 2026-05-05 20:29 | 51.65007 | 10.08679 | 33847 ft | 425 kts | 199° |
| 2026-05-05 20:30 | 51.59447 | 10.05481 | 33841 ft | 425 kts | 199° |
| 2026-05-05 20:30 | 51.53900 | 10.02300 | 33828 ft | 426 kts | 199° |
| 2026-05-05 20:31 | 51.48326 | 9.99110 | 33815 ft | 427 kts | 199° |
| 2026-05-05 20:31 | 51.42704 | 9.95901 | 33808 ft | 428 kts | 199° |
| 2026-05-05 20:32 | 51.37086 | 9.92704 | 33807 ft | 429 kts | 199° |
| 2026-05-05 20:32 | 51.31421 | 9.89724 | 33809 ft | 430 kts | 196° |
| 2026-05-05 20:33 | 51.25717 | 9.87001 | 33811 ft | 432 kts | 196° |
| 2026-05-05 20:33 | 51.19950 | 9.84241 | 33814 ft | 433 kts | 196° |
| 2026-05-05 20:34 | 51.14221 | 9.81488 | 33817 ft | 434 kts | 196° |
| 2026-05-05 20:34 | 51.08458 | 9.78718 | 33819 ft | 435 kts | 196° |
| 2026-05-05 20:35 | 51.02676 | 9.75944 | 33819 ft | 436 kts | 195° |
| 2026-05-05 20:35 | 50.96865 | 9.73161 | 33817 ft | 437 kts | 195° |
| 2026-05-05 20:36 | 50.91054 | 9.70386 | 33811 ft | 438 kts | 195° |
| 2026-05-05 20:36 | 50.85218 | 9.67606 | 33804 ft | 439 kts | 195° |
| 2026-05-05 20:37 | 50.79335 | 9.64810 | 33797 ft | 440 kts | 195° |
| 2026-05-05 20:37 | 50.73481 | 9.62036 | 33793 ft | 441 kts | 195° |
| 2026-05-05 20:38 | 50.67628 | 9.59269 | 33793 ft | 442 kts | 195° |
| 2026-05-05 20:38 | 50.61752 | 9.56499 | 33793 ft | 442 kts | 195° |
| 2026-05-05 20:39 | 50.55885 | 9.53739 | 33793 ft | 442 kts | 195° |
| 2026-05-05 20:39 | 50.49997 | 9.50978 | 33793 ft | 443 kts | 195° |
| 2026-05-05 20:40 | 50.44065 | 9.48203 | 33793 ft | 443 kts | 194° |
| 2026-05-05 20:40 | 50.38193 | 9.45464 | 33793 ft | 444 kts | 194° |
| 2026-05-05 20:41 | 50.32267 | 9.42705 | 33795 ft | 445 kts | 194° |
| 2026-05-05 20:41 | 50.26320 | 9.39944 | 33802 ft | 445 kts | 194° |
| 2026-05-05 20:42 | 50.20407 | 9.37208 | 33811 ft | 445 kts | 194° |
| 2026-05-05 20:42 | 50.14487 | 9.34474 | 33816 ft | 445 kts | 194° |
| 2026-05-05 20:43 | 50.08565 | 9.31747 | 33819 ft | 445 kts | 194° |
| 2026-05-05 20:43 | 50.02626 | 9.29018 | 33819 ft | 445 kts | 194° |
| 2026-05-05 20:44 | 49.96697 | 9.26302 | 33819 ft | 445 kts | 194° |
| 2026-05-05 20:44 | 49.90752 | 9.23585 | 33819 ft | 446 kts | 194° |
| 2026-05-05 20:45 | 49.81860 | 9.19534 | 33820 ft | 445 kts | 194° |
| 2026-05-05 20:45 | 49.75936 | 9.16843 | 33820 ft | 445 kts | 194° |
| 2026-05-05 20:46 | 49.69996 | 9.14152 | 33820 ft | 445 kts | 194° |
| 2026-05-05 20:46 | 49.64067 | 9.11473 | 33820 ft | 445 kts | 194° |
| 2026-05-05 20:47 | 49.58153 | 9.08808 | 33820 ft | 445 kts | 194° |
| 2026-05-05 20:47 | 49.52206 | 9.06134 | 33820 ft | 444 kts | 194° |
| 2026-05-05 20:48 | 49.46288 | 9.03480 | 33819 ft | 444 kts | 194° |
| 2026-05-05 20:48 | 49.40356 | 9.00827 | 33820 ft | 444 kts | 194° |
| 2026-05-05 20:49 | 49.34435 | 8.98185 | 33820 ft | 444 kts | 194° |
| 2026-05-05 20:49 | 49.28537 | 8.95561 | 33820 ft | 443 kts | 194° |
| 2026-05-05 20:50 | 49.22617 | 8.92932 | 33820 ft | 443 kts | 194° |
| 2026-05-05 20:50 | 49.16719 | 8.90319 | 33820 ft | 443 kts | 195° |
| 2026-05-05 20:51 | 49.10813 | 8.87709 | 33819 ft | 443 kts | 195° |
| 2026-05-05 20:51 | 49.04912 | 8.85107 | 33820 ft | 443 kts | 195° |
| 2026-05-05 20:52 | 48.99029 | 8.82519 | 33820 ft | 443 kts | 195° |
| 2026-05-05 20:52 | 48.93107 | 8.79921 | 33820 ft | 442 kts | 195° |
| 2026-05-05 20:53 | 48.90142 | 8.78649 | 33409 ft | 444 kts | 194° |
| 2026-05-05 20:53 | 48.87156 | 8.77592 | 32593 ft | 444 kts | 191° |
| 2026-05-05 20:53 | 48.84148 | 8.76762 | 31767 ft | 445 kts | 189° |
| 2026-05-05 20:53 | 48.81090 | 8.75942 | 30910 ft | 446 kts | 189° |
| 2026-05-05 20:54 | 48.78034 | 8.75118 | 29988 ft | 449 kts | 189° |
| 2026-05-05 20:54 | 48.74995 | 8.74301 | 29187 ft | 448 kts | 189° |
| 2026-05-05 20:54 | 48.71939 | 8.73482 | 28621 ft | 442 kts | 189° |
| 2026-05-05 20:54 | 48.68968 | 8.72687 | 28136 ft | 436 kts | 189° |
| 2026-05-05 20:55 | 48.65993 | 8.71893 | 27654 ft | 429 kts | 189° |
| 2026-05-05 20:55 | 48.63088 | 8.71117 | 27188 ft | 423 kts | 189° |
| 2026-05-05 20:55 | 48.60216 | 8.70352 | 26708 ft | 418 kts | 189° |
| 2026-05-05 20:55 | 48.57384 | 8.69598 | 26209 ft | 413 kts | 189° |
| 2026-05-05 20:56 | 48.54577 | 8.68852 | 25715 ft | 409 kts | 189° |
| 2026-05-05 20:56 | 48.51777 | 8.68108 | 25226 ft | 405 kts | 189° |
| 2026-05-05 20:56 | 48.49040 | 8.67382 | 24745 ft | 401 kts | 189° |
| 2026-05-05 20:56 | 48.46299 | 8.66654 | 24246 ft | 397 kts | 189° |
| 2026-05-05 20:57 | 48.42703 | 8.65704 | 23602 ft | 392 kts | 190° |
| 2026-05-05 20:57 | 48.40918 | 8.65233 | 23282 ft | 390 kts | 190° |
| 2026-05-05 20:57 | 48.38281 | 8.64539 | 22805 ft | 387 kts | 190° |
| 2026-05-05 20:57 | 48.35641 | 8.63781 | 22309 ft | 384 kts | 192° |
| 2026-05-05 20:58 | 48.33032 | 8.62985 | 21815 ft | 381 kts | 192° |
| 2026-05-05 20:58 | 48.30470 | 8.62199 | 21330 ft | 378 kts | 192° |
| 2026-05-05 20:58 | 48.27892 | 8.61413 | 20855 ft | 374 kts | 192° |
| 2026-05-05 20:58 | 48.25357 | 8.60645 | 20381 ft | 371 kts | 192° |
| 2026-05-05 20:59 | 48.22841 | 8.59886 | 19904 ft | 368 kts | 193° |
| 2026-05-05 20:59 | 48.20368 | 8.59142 | 19439 ft | 365 kts | 193° |
| 2026-05-05 20:59 | 48.17877 | 8.58393 | 18963 ft | 363 kts | 193° |
| 2026-05-05 20:59 | 48.15428 | 8.57660 | 18485 ft | 360 kts | 193° |
| 2026-05-05 21:00 | 48.12998 | 8.56936 | 18012 ft | 358 kts | 193° |
| 2026-05-05 21:00 | 48.10580 | 8.56216 | 17545 ft | 355 kts | 193° |
| 2026-05-05 21:00 | 48.08169 | 8.55497 | 17081 ft | 352 kts | 194° |
| 2026-05-05 21:00 | 48.05759 | 8.54780 | 16619 ft | 349 kts | 194° |
| 2026-05-05 21:01 | 48.03392 | 8.54076 | 16160 ft | 347 kts | 194° |
| 2026-05-05 21:01 | 48.01039 | 8.53377 | 15694 ft | 345 kts | 194° |
| 2026-05-05 21:01 | 47.98706 | 8.52685 | 15235 ft | 342 kts | 194° |
| 2026-05-05 21:01 | 47.96385 | 8.52097 | 14763 ft | 342 kts | 186° |
| 2026-05-05 21:02 | 47.94016 | 8.52538 | 14277 ft | 347 kts | 166° |
| 2026-05-05 21:02 | 47.91893 | 8.54236 | 13818 ft | 353 kts | 147° |
| 2026-05-05 21:02 | 47.89985 | 8.56518 | 13371 ft | 352 kts | 145° |
| 2026-05-05 21:02 | 47.88103 | 8.58846 | 12915 ft | 350 kts | 144° |
| 2026-05-05 21:03 | 47.86252 | 8.61135 | 12470 ft | 347 kts | 145° |
| 2026-05-05 21:03 | 47.84404 | 8.63407 | 12026 ft | 345 kts | 145° |
| 2026-05-05 21:03 | 47.82551 | 8.65669 | 11582 ft | 343 kts | 145° |
| 2026-05-05 21:03 | 47.80719 | 8.67893 | 11127 ft | 341 kts | 145° |
| 2026-05-05 21:04 | 47.78875 | 8.70127 | 10661 ft | 340 kts | 144° |
| 2026-05-05 21:04 | 47.77051 | 8.72335 | 10353 ft | 333 kts | 144° |
| 2026-05-05 21:04 | 47.75291 | 8.74468 | 10216 ft | 320 kts | 144° |
| 2026-05-05 21:04 | 47.73597 | 8.76520 | 10083 ft | 308 kts | 144° |
| 2026-05-05 21:05 | 47.71977 | 8.78479 | 9953 ft | 296 kts | 145° |
| 2026-05-05 21:05 | 47.70406 | 8.80372 | 9682 ft | 291 kts | 144° |
| 2026-05-05 21:05 | 47.68840 | 8.82253 | 9297 ft | 290 kts | 144° |
| 2026-05-05 21:05 | 47.67278 | 8.84127 | 8924 ft | 289 kts | 144° |
| 2026-05-05 21:06 | 47.65720 | 8.86002 | 8560 ft | 288 kts | 144° |
| 2026-05-05 21:06 | 47.64182 | 8.87851 | 8212 ft | 286 kts | 144° |
| 2026-05-05 21:06 | 47.62575 | 8.89546 | 7833 ft | 281 kts | 159° |
| 2026-05-05 21:06 | 47.60736 | 8.90165 | 7474 ft | 271 kts | 185° |
| 2026-05-05 21:07 | 47.58870 | 8.89873 | 7142 ft | 266 kts | 191° |
| 2026-05-05 21:07 | 47.57062 | 8.89469 | 6808 ft | 264 kts | 192° |
| 2026-05-05 21:07 | 47.55250 | 8.89066 | 6475 ft | 262 kts | 191° |
| 2026-05-05 21:07 | 47.53442 | 8.88683 | 6143 ft | 261 kts | 191° |
| 2026-05-05 21:08 | 47.51659 | 8.88318 | 5817 ft | 259 kts | 191° |
| 2026-05-05 21:08 | 47.49884 | 8.87961 | 5492 ft | 257 kts | 190° |
| 2026-05-05 21:08 | 47.48116 | 8.87607 | 5169 ft | 256 kts | 189° |
| 2026-05-05 21:08 | 47.46413 | 8.87226 | 5087 ft | 241 kts | 198° |
| 2026-05-05 21:09 | 47.45001 | 8.86032 | 5034 ft | 236 kts | 229° |
| 2026-05-05 21:09 | 47.44214 | 8.84006 | 5014 ft | 222 kts | 253° |
| 2026-05-05 21:09 | 47.43959 | 8.81773 | 5035 ft | 218 kts | 268° |
| 2026-05-05 21:09 | 47.44019 | 8.79538 | 4756 ft | 220 kts | 276° |
| 2026-05-05 21:10 | 47.44225 | 8.77295 | 4286 ft | 221 kts | 278° |
| 2026-05-05 21:10 | 47.44420 | 8.75097 | 3920 ft | 217 kts | 276° |
| 2026-05-05 21:10 | 47.44568 | 8.72866 | 3641 ft | 217 kts | 275° |
| 2026-05-05 21:10 | 47.44707 | 8.70692 | 3405 ft | 203 kts | 276° |
| 2026-05-05 21:11 | 47.44842 | 8.68683 | 3142 ft | 190 kts | 277° |
| 2026-05-05 21:11 | 47.44973 | 8.66799 | 2838 ft | 185 kts | 277° |
| 2026-05-05 21:11 | 47.45103 | 8.64936 | 2583 ft | 180 kts | 277° |
| 2026-05-05 21:11 | 47.45227 | 8.63167 | 2300 ft | 164 kts | 277° |
| 2026-05-05 21:12 | 47.45338 | 8.61576 | 2048 ft | 148 kts | 277° |
| 2026-05-05 21:12 | 47.45442 | 8.60085 | 1848 ft | 145 kts | 277° |
| 2026-05-05 21:12 | 47.45552 | 8.58551 | 1887 ft | 159 kts | 277° |
| 2026-05-05 21:12 | 47.45684 | 8.56791 | 2320 ft | 182 kts | 277° |
| 2026-05-05 21:13 | 47.45811 | 8.55026 | 3174 ft | 169 kts | 276° |
| 2026-05-05 21:13 | 47.45935 | 8.53252 | 3600 ft | 179 kts | 276° |
| 2026-05-05 21:13 | 47.46070 | 8.51340 | 3876 ft | 199 kts | 275° |
| 2026-05-05 21:13 | 47.46075 | 8.49202 | 4204 ft | 219 kts | 255° |
| 2026-05-05 21:14 | 47.45280 | 8.47244 | 4583 ft | 236 kts | 220° |
| 2026-05-05 21:14 | 47.43748 | 8.46181 | 4945 ft | 257 kts | 195° |
| 2026-05-05 21:14 | 47.41948 | 8.46116 | 4986 ft | 265 kts | 172° |
| 2026-05-05 21:14 | 47.40210 | 8.47072 | 4979 ft | 269 kts | 147° |
| 2026-05-05 21:15 | 47.38971 | 8.49102 | 4984 ft | 273 kts | 118° |
| 2026-05-05 21:15 | 47.38454 | 8.51798 | 4996 ft | 276 kts | 99° |
| 2026-05-05 21:15 | 47.38214 | 8.54623 | 4992 ft | 276 kts | 98° |
| 2026-05-05 21:15 | 47.37993 | 8.57453 | 4990 ft | 276 kts | 98° |
| 2026-05-05 21:16 | 47.37783 | 8.60240 | 4989 ft | 276 kts | 95° |
| 2026-05-05 21:16 | 47.37690 | 8.63097 | 4989 ft | 277 kts | 92° |
| 2026-05-05 21:16 | 47.37654 | 8.65938 | 4989 ft | 277 kts | 92° |
| 2026-05-05 21:16 | 47.37627 | 8.68782 | 4988 ft | 277 kts | 91° |
| 2026-05-05 21:17 | 47.37552 | 8.71611 | 4989 ft | 277 kts | 95° |
| 2026-05-05 21:17 | 47.37387 | 8.74452 | 4989 ft | 277 kts | 96° |
| 2026-05-05 21:17 | 47.37204 | 8.77251 | 4989 ft | 277 kts | 97° |
| 2026-05-05 21:17 | 47.37014 | 8.80035 | 4990 ft | 264 kts | 98° |
| 2026-05-05 21:18 | 47.36763 | 8.82730 | 4989 ft | 261 kts | 99° |
| 2026-05-05 21:18 | 47.36501 | 8.85258 | 4971 ft | 240 kts | 99° |
| 2026-05-05 21:18 | 47.36288 | 8.87645 | 4969 ft | 234 kts | 95° |
| 2026-05-05 21:18 | 47.36187 | 8.90088 | 4981 ft | 235 kts | 93° |
| 2026-05-05 21:19 | 47.36120 | 8.92473 | 4986 ft | 235 kts | 92° |
| 2026-05-05 21:19 | 47.36057 | 8.94891 | 4988 ft | 235 kts | 92° |
| 2026-05-05 21:19 | 47.35997 | 8.97317 | 4989 ft | 235 kts | 92° |
| 2026-05-05 21:19 | 47.36023 | 8.99701 | 4976 ft | 235 kts | 77° |
| 2026-05-05 21:20 | 47.36797 | 9.01744 | 4959 ft | 232 kts | 36° |
| 2026-05-05 21:20 | 47.38253 | 9.02629 | 4997 ft | 228 kts | 4° |
| 2026-05-05 21:20 | 47.39818 | 9.02344 | 4992 ft | 230 kts | 331° |
| 2026-05-05 21:20 | 47.40974 | 9.00785 | 4989 ft | 226 kts | 295° |
| 2026-05-05 21:21 | 47.41449 | 8.98705 | 4998 ft | 209 kts | 283° |
| 2026-05-05 21:21 | 47.41801 | 8.96625 | 4991 ft | 206 kts | 284° |
| 2026-05-05 21:21 | 47.42284 | 8.94708 | 4979 ft | 192 kts | 292° |
| 2026-05-05 21:21 | 47.42773 | 8.92901 | 4987 ft | 192 kts | 286° |
| 2026-05-05 21:22 | 47.43105 | 8.90996 | 4988 ft | 191 kts | 279° |
| 2026-05-05 21:22 | 47.43338 | 8.89105 | 5032 ft | 177 kts | 278° |
| 2026-05-05 21:22 | 47.43525 | 8.87314 | 5064 ft | 174 kts | 277° |
| 2026-05-05 21:22 | 47.43674 | 8.85620 | 4988 ft | 154 kts | 276° |
| 2026-05-05 21:23 | 47.43793 | 8.84086 | 4980 ft | 152 kts | 275° |
| 2026-05-05 21:23 | 47.43907 | 8.82501 | 4986 ft | 153 kts | 274° |
| 2026-05-05 21:23 | 47.44013 | 8.80962 | 4843 ft | 150 kts | 274° |
| 2026-05-05 21:23 | 47.44115 | 8.79447 | 4619 ft | 147 kts | 274° |
| 2026-05-05 21:24 | 47.44216 | 8.77930 | 4400 ft | 147 kts | 275° |
| 2026-05-05 21:24 | 47.44317 | 8.76424 | 4189 ft | 147 kts | 274° |
| 2026-05-05 21:24 | 47.44417 | 8.74929 | 3973 ft | 148 kts | 275° |
| 2026-05-05 21:24 | 47.44519 | 8.73406 | 3770 ft | 146 kts | 276° |
| 2026-05-05 21:25 | 47.44620 | 8.71923 | 3559 ft | 147 kts | 276° |
| 2026-05-05 21:25 | 47.44723 | 8.70405 | 3335 ft | 148 kts | 277° |
| 2026-05-05 21:25 | 47.44828 | 8.68886 | 3116 ft | 149 kts | 277° |
| 2026-05-05 21:25 | 47.44934 | 8.67364 | 2898 ft | 149 kts | 277° |
| 2026-05-05 21:26 | 47.45040 | 8.65849 | 2680 ft | 149 kts | 277° |
| 2026-05-05 21:26 | 47.45145 | 8.64329 | 2463 ft | 148 kts | 277° |
| 2026-05-05 21:26 | 47.45251 | 8.62822 | 2249 ft | 148 kts | 277° |
| 2026-05-05 21:26 | 47.45358 | 8.61311 | 2052 ft | 150 kts | 276° |
| 2026-05-05 21:27 | 47.45092 | 8.59843 | 2549 ft | 151 kts | 233° |
| 2026-05-05 21:27 | 47.44166 | 8.59093 | 2953 ft | 164 kts | 184° |
| 2026-05-05 21:27 | 47.43124 | 8.59587 | 3249 ft | 160 kts | 143° |
| 2026-05-05 21:27 | 47.42327 | 8.60701 | 3583 ft | 157 kts | 130° |
| 2026-05-05 21:28 | 47.41692 | 8.62005 | 3885 ft | 158 kts | 120° |
| 2026-05-05 21:28 | 47.41231 | 8.63500 | 4182 ft | 164 kts | 103° |
| 2026-05-05 21:28 | 47.41389 | 8.65171 | 4394 ft | 173 kts | 68° |
| 2026-05-05 21:28 | 47.41724 | 8.66902 | 4623 ft | 184 kts | 90° |
| 2026-05-05 21:29 | 47.41339 | 8.68720 | 4860 ft | 192 kts | 123° |
| 2026-05-05 21:29 | 47.40696 | 8.70490 | 4975 ft | 200 kts | 111° |
| 2026-05-05 21:29 | 47.40413 | 8.72515 | 4987 ft | 201 kts | 96° |
| 2026-05-05 21:29 | 47.40357 | 8.74604 | 4990 ft | 202 kts | 92° |
| 2026-05-05 21:30 | 47.40341 | 8.76679 | 4990 ft | 202 kts | 91° |
| 2026-05-05 21:30 | 47.40322 | 8.78826 | 5002 ft | 213 kts | 91° |
| 2026-05-05 21:30 | 47.40411 | 8.81017 | 4983 ft | 216 kts | 75° |
| 2026-05-05 21:30 | 47.41267 | 8.82678 | 4952 ft | 200 kts | 29° |
| 2026-05-05 21:31 | 47.42567 | 8.83146 | 4975 ft | 194 kts | 352° |
| 2026-05-05 21:31 | 47.43752 | 8.82344 | 4977 ft | 189 kts | 313° |
| 2026-05-05 21:31 | 47.44314 | 8.80643 | 4811 ft | 185 kts | 276° |
| 2026-05-05 21:31 | 47.44335 | 8.78756 | 4554 ft | 184 kts | 267° |
| 2026-05-05 21:32 | 47.44322 | 8.76882 | 4281 ft | 184 kts | 270° |
| 2026-05-05 21:32 | 47.44400 | 8.74953 | 3999 ft | 185 kts | 275° |
| 2026-05-05 21:32 | 47.44528 | 8.73089 | 3726 ft | 180 kts | 276° |
| 2026-05-05 21:32 | 47.44661 | 8.71285 | 3458 ft | 173 kts | 276° |
| 2026-05-05 21:33 | 47.44781 | 8.69574 | 3205 ft | 161 kts | 277° |
| 2026-05-05 21:33 | 47.44892 | 8.67991 | 2971 ft | 149 kts | 277° |
| 2026-05-05 21:33 | 47.44997 | 8.66471 | 2770 ft | 148 kts | 277° |
| 2026-05-05 21:33 | 47.45101 | 8.64971 | 2565 ft | 148 kts | 277° |
| 2026-05-05 21:34 | 47.45207 | 8.63459 | 2350 ft | 147 kts | 277° |
| 2026-05-05 21:34 | 47.45312 | 8.61950 | 2130 ft | 147 kts | 277° |
| 2026-05-05 21:34 | 47.45417 | 8.60464 | 1914 ft | 146 kts | 277° |
| 2026-05-05 21:34 | 47.45522 | 8.58965 | 1697 ft | 146 kts | 277° |
| 2026-05-05 21:35 | 47.45628 | 8.57464 | 1484 ft | 145 kts | 277° |
| 2026-05-05 21:35 | 47.45728 | 8.56062 | 1382 ft | 113 kts | 277° |
| 2026-05-05 21:35 | 47.45780 | 8.55317 | 1383 ft | 41 kts | 276° |
| 2026-05-05 21:35 | 47.45733 | 8.55143 | 1383 ft | 17 kts | 158° |
| 2026-05-05 21:36 | 47.45702 | 8.55162 | 1383 ft | 0 kts | 158° |
| 2026-05-05 21:36 | 47.45701 | 8.55163 | 1383 ft | 0 kts | 157° |
| 2026-05-05 21:36 | 47.45702 | 8.55162 | 1383 ft | 0 kts | 157° |
| 2026-05-05 21:36 | 47.45651 | 8.55197 | 1383 ft | 15 kts | 155° |
| 2026-05-05 21:37 | 47.45550 | 8.55281 | 1383 ft | 15 kts | 124° |
| 2026-05-05 21:37 | 47.45530 | 8.55442 | 1383 ft | 16 kts | 96° |
| 2026-05-05 21:37 | 47.45519 | 8.55597 | 1383 ft | 15 kts | 96° |
| 2026-05-05 21:37 | 47.45507 | 8.55743 | 1383 ft | 9 kts | 110° |
| 2026-05-05 21:38 | 47.45479 | 8.55755 | 1383 ft | 3 kts | 186° |
| 2026-05-05 21:38 | 47.45451 | 8.55750 | 1383 ft | 3 kts | 187° |
| 2026-05-05 21:38 | 47.45438 | 8.55747 | 1383 ft | 0 kts | 186° |